createdAt,value
2018-01-21T00:00:45.151Z,20.23
2018-01-21T00:03:14.365Z,21.83
2018-01-21T00:05:43.576Z,22.47
2018-01-21T00:08:12.835Z,21.27
2018-01-21T00:10:42.146Z,22.67
2018-01-21T00:13:11.394Z,23.57
2018-01-21T00:15:40.668Z,22.30
2018-01-21T00:18:09.870Z,21.90
2018-01-21T00:20:39.123Z,23.57
2018-01-21T00:23:08.510Z,22.63
2018-01-21T00:25:38.546Z,26.20
2018-01-21T00:28:07.741Z,25.80
2018-01-21T00:30:36.994Z,25.43
2018-01-21T00:33:06.341Z,26.93
2018-01-21T00:35:36.571Z,23.90
2018-01-21T00:38:05.791Z,27.23
2018-01-21T00:40:35.028Z,27.27
2018-01-21T00:43:05.019Z,28.07
2018-01-21T00:45:34.386Z,28.93
2018-01-21T00:48:04.355Z,29.90
2018-01-21T00:50:34.337Z,31.40
2018-01-21T00:53:03.718Z,30.80
2018-01-21T00:55:33.026Z,27.93
2018-01-21T00:58:02.242Z,27.77
2018-01-21T01:00:31.446Z,31.77
2018-01-21T01:03:00.690Z,27.80
2018-01-21T01:05:30.057Z,30.03
2018-01-21T01:07:59.231Z,29.47
2018-01-21T01:10:28.727Z,32.33
2018-01-21T01:12:58.678Z,31.70
2018-01-21T01:15:27.887Z,30.80
2018-01-21T01:17:57.856Z,31.17
2018-01-21T01:20:27.054Z,33.77
2018-01-21T01:22:56.284Z,35.10
2018-01-21T01:25:25.478Z,37.17
2018-01-21T01:27:54.748Z,35.90
2018-01-21T01:30:24.747Z,33.70
2018-01-21T01:32:53.970Z,37.50
2018-01-21T01:35:23.203Z,34.93
2018-01-21T01:37:53.172Z,33.60
2018-01-21T01:40:22.404Z,30.17
2018-01-21T01:42:51.595Z,34.13
2018-01-21T01:45:20.829Z,31.37
2018-01-21T01:47:50.041Z,30.87
2018-01-21T01:50:19.343Z,28.73
2018-01-21T01:52:48.538Z,31.23
2018-01-21T01:55:17.743Z,31.90
2018-01-21T01:57:46.950Z,30.63
2018-01-21T02:00:17.738Z,29.57
2018-01-21T02:02:47.715Z,32.30
2018-01-21T02:05:16.953Z,32.77
2018-01-21T02:07:46.950Z,33.20
2018-01-21T02:10:16.165Z,32.60
2018-01-21T02:12:46.153Z,33.33
2018-01-21T02:15:15.402Z,31.97
2018-01-21T02:17:44.631Z,32.43
2018-01-21T02:20:13.883Z,31.73
2018-01-21T02:22:43.913Z,33.13
2018-01-21T02:25:13.115Z,32.63
2018-01-21T02:27:42.334Z,29.87
2018-01-21T02:30:11.662Z,30.50
2018-01-21T02:32:40.877Z,30.03
2018-01-21T02:35:10.858Z,29.60
2018-01-21T02:37:40.077Z,28.47
2018-01-21T02:40:10.245Z,29.40
2018-01-21T02:42:39.455Z,30.77
2018-01-21T02:45:08.816Z,30.23
2018-01-21T02:47:38.876Z,29.10
2018-01-21T02:50:08.278Z,29.00
2018-01-21T02:52:37.498Z,29.20
2018-01-21T02:55:06.733Z,29.90
2018-01-21T02:57:35.960Z,28.70
2018-01-21T03:00:05.199Z,28.40
2018-01-21T03:02:34.506Z,26.80
2018-01-21T03:05:03.682Z,27.33
2018-01-21T03:07:32.881Z,25.43
2018-01-21T03:10:02.121Z,25.63
2018-01-21T03:12:32.087Z,26.77
2018-01-21T03:15:01.305Z,27.57
2018-01-21T03:17:30.493Z,24.07
2018-01-21T03:20:01.225Z,26.17
2018-01-21T03:22:31.906Z,25.23
2018-01-21T03:25:01.927Z,23.97
2018-01-21T03:27:31.881Z,23.00
2018-01-21T03:30:01.103Z,25.23
2018-01-21T03:32:30.340Z,25.13
2018-01-21T03:34:59.550Z,27.30
2018-01-21T03:37:28.795Z,24.70
2018-01-21T03:39:58.047Z,25.23
2018-01-21T03:42:28.042Z,24.57
2018-01-21T03:44:58.041Z,21.63
2018-01-21T03:47:28.014Z,22.00
2018-01-21T03:49:57.219Z,20.07
2018-01-21T03:52:26.465Z,19.60
2018-01-21T03:54:56.541Z,18.93
2018-01-21T03:57:25.754Z,18.10
2018-01-21T03:59:54.999Z,18.23
2018-01-21T04:02:24.412Z,18.40
2018-01-21T04:04:53.613Z,18.47
2018-01-21T04:07:22.848Z,18.47
2018-01-21T04:09:52.850Z,17.30
2018-01-21T04:12:22.086Z,17.07
2018-01-21T04:14:52.155Z,17.70
2018-01-21T04:17:21.369Z,17.43
2018-01-21T04:19:50.746Z,19.30
2018-01-21T04:22:19.945Z,20.23
2018-01-21T04:24:49.146Z,18.87
2018-01-21T04:27:18.381Z,19.47
2018-01-21T04:29:47.570Z,20.97
2018-01-21T04:32:16.796Z,20.10
2018-01-21T04:34:46.825Z,20.97
2018-01-21T04:37:16.075Z,21.90
2018-01-21T04:39:45.324Z,18.37
2018-01-21T04:42:14.630Z,20.77
2018-01-21T04:44:43.849Z,20.10
2018-01-21T04:47:13.162Z,20.20
2018-01-21T04:49:42.354Z,19.07
2018-01-21T04:52:11.560Z,20.00
2018-01-21T04:54:40.807Z,17.83
2018-01-21T04:57:10.926Z,16.87
2018-01-21T04:59:40.150Z,18.37
2018-01-21T05:02:09.394Z,20.00
2018-01-21T05:04:38.668Z,17.53
2018-01-21T05:07:08.003Z,16.13
2018-01-21T05:09:37.986Z,17.30
2018-01-21T05:12:07.189Z,17.00
2018-01-21T05:14:36.533Z,16.37
2018-01-21T05:17:06.624Z,16.53
2018-01-21T05:19:35.854Z,17.60
2018-01-21T05:22:05.083Z,18.37
2018-01-21T05:24:34.303Z,17.50
2018-01-21T05:27:04.333Z,15.87
2018-01-21T05:29:34.373Z,15.83
2018-01-21T05:32:03.605Z,15.57
2018-01-21T05:34:33.014Z,16.13
2018-01-21T05:37:02.293Z,15.90
2018-01-21T05:39:31.488Z,16.10
2018-01-21T05:42:00.780Z,16.10
2018-01-21T05:44:30.014Z,17.00
2018-01-21T05:46:59.246Z,16.23
2018-01-21T05:49:28.491Z,14.90
2018-01-21T05:51:57.685Z,16.23
2018-01-21T05:54:26.916Z,16.17
2018-01-21T05:56:56.143Z,15.90
2018-01-21T05:59:26.217Z,17.37
2018-01-21T06:01:55.440Z,16.93
2018-01-21T06:04:24.709Z,18.50
2018-01-21T06:06:53.930Z,17.50
2018-01-21T06:09:23.142Z,16.30
2018-01-21T06:11:53.110Z,17.57
2018-01-21T06:14:22.307Z,16.77
2018-01-21T06:16:51.646Z,17.43
2018-01-21T06:19:20.866Z,16.53
2018-01-21T06:21:50.850Z,15.20
2018-01-21T06:24:20.052Z,16.60
2018-01-21T06:26:49.419Z,15.53
2018-01-21T06:29:18.712Z,15.33
2018-01-21T06:31:47.938Z,16.60
2018-01-21T06:34:17.173Z,15.83
2018-01-21T06:36:47.184Z,14.93
2018-01-21T06:39:16.418Z,15.30
2018-01-21T06:41:45.615Z,14.60
2018-01-21T06:44:14.897Z,13.10
2018-01-21T06:46:44.853Z,14.20
2018-01-21T06:49:14.103Z,13.77
2018-01-21T06:51:44.078Z,12.73
2018-01-21T06:54:13.258Z,14.50
2018-01-21T06:56:42.496Z,13.47
2018-01-21T06:59:11.725Z,12.80
2018-01-21T07:01:40.942Z,12.80
2018-01-21T07:04:10.163Z,13.23
2018-01-21T07:06:39.385Z,13.30
2018-01-21T07:09:08.571Z,13.97
2018-01-21T07:11:37.816Z,13.77
2018-01-21T07:14:06.994Z,13.23
2018-01-21T07:16:36.235Z,12.00
2018-01-21T07:19:05.660Z,12.70
2018-01-21T07:21:34.894Z,11.50
2018-01-21T07:24:04.853Z,12.10
2018-01-21T07:26:34.895Z,10.27
2018-01-21T07:29:05.026Z,10.80
2018-01-21T07:31:34.287Z,13.00
2018-01-21T07:34:03.552Z,10.23
2018-01-21T07:36:33.539Z,10.87
2018-01-21T07:39:03.527Z,10.70
2018-01-21T07:41:32.728Z,9.87
2018-01-21T07:44:01.942Z,10.53
2018-01-21T07:46:31.149Z,10.43
2018-01-21T07:49:01.188Z,11.40
2018-01-21T07:51:31.174Z,14.17
2018-01-21T07:54:00.401Z,12.20
2018-01-21T07:56:30.526Z,13.20
2018-01-21T07:58:59.801Z,11.63
2018-01-21T08:01:29.787Z,12.47
2018-01-21T08:03:59.032Z,11.73
2018-01-21T08:06:29.078Z,12.13
2018-01-21T08:08:58.287Z,12.20
2018-01-21T08:11:27.507Z,12.33
2018-01-21T08:13:56.799Z,11.17
2018-01-21T08:16:26.034Z,12.73
2018-01-21T08:18:56.110Z,12.13
2018-01-21T08:21:25.331Z,11.40
2018-01-21T08:23:54.568Z,11.87
2018-01-21T08:26:23.827Z,12.10
2018-01-21T08:28:53.053Z,11.10
2018-01-21T08:31:22.302Z,11.93
2018-01-21T08:33:56.939Z,12.70
2018-01-21T08:36:31.804Z,11.20
2018-01-21T08:39:07.245Z,12.40
2018-01-21T08:41:38.299Z,12.27
2018-01-21T08:44:07.526Z,12.40
2018-01-21T08:46:36.765Z,11.60
2018-01-21T08:49:06.103Z,11.93
2018-01-21T08:51:35.390Z,11.37
2018-01-21T08:54:05.370Z,12.90
2018-01-21T08:56:34.592Z,14.00
2018-01-21T08:59:04.615Z,14.10
2018-01-21T09:01:34.611Z,12.80
2018-01-21T09:04:04.747Z,14.57
2018-01-21T09:06:34.818Z,14.10
2018-01-21T09:09:05.750Z,14.10
2018-01-21T09:11:36.226Z,12.30
2018-01-21T09:14:05.686Z,13.03
2018-01-21T09:16:35.077Z,13.07
2018-01-21T09:19:04.481Z,12.73
2018-01-21T09:21:34.068Z,12.07
2018-01-21T09:24:03.766Z,12.50
2018-01-21T09:26:33.098Z,10.73
2018-01-21T09:29:03.717Z,10.93
2018-01-21T09:31:33.115Z,9.70
2018-01-21T09:34:02.505Z,10.83
2018-01-21T09:36:32.327Z,10.63
2018-01-21T09:39:01.935Z,15.30
2018-01-21T09:41:31.353Z,13.70
2018-01-21T09:44:01.301Z,11.80
2018-01-21T09:46:31.373Z,9.40
2018-01-21T09:49:00.855Z,10.90
2018-01-21T09:51:31.093Z,10.20
2018-01-21T09:54:00.570Z,11.50
2018-01-21T09:56:30.047Z,11.17
2018-01-21T09:59:00.545Z,11.13
2018-01-21T10:01:30.169Z,12.27
2018-01-21T10:04:00.221Z,12.40
2018-01-21T10:06:29.496Z,11.80
2018-01-21T10:09:00.230Z,13.00
2018-01-21T10:11:30.219Z,11.73
2018-01-21T10:13:59.426Z,13.17
2018-01-21T10:16:28.685Z,11.30
2018-01-21T10:18:57.894Z,11.70
2018-01-21T10:21:27.137Z,12.50
2018-01-21T10:23:56.442Z,12.00
2018-01-21T10:26:26.446Z,13.60
2018-01-21T10:28:55.691Z,12.30
2018-01-21T10:31:24.900Z,13.60
2018-01-21T10:33:54.277Z,12.57
2018-01-21T10:36:23.544Z,12.07
2018-01-21T10:38:53.551Z,12.07
2018-01-21T10:41:22.800Z,13.03
2018-01-21T10:43:52.004Z,13.83
2018-01-21T10:46:21.282Z,14.00
2018-01-21T10:48:51.468Z,13.60
2018-01-21T10:51:20.696Z,18.87
2018-01-21T10:53:50.777Z,23.23
2018-01-21T10:56:20.007Z,16.07
2018-01-21T10:58:50.936Z,14.83
2018-01-21T11:01:20.953Z,13.07
2018-01-21T11:03:50.250Z,14.93
2018-01-21T11:06:19.550Z,10.40
2018-01-21T11:08:48.897Z,11.57
2018-01-21T11:11:18.153Z,10.30
2018-01-21T11:13:47.540Z,11.67
2018-01-21T11:16:16.864Z,10.30
2018-01-21T11:18:47.114Z,11.13
2018-01-21T11:21:16.347Z,9.20
2018-01-21T11:23:45.567Z,9.40
2018-01-21T11:26:14.776Z,11.50
2018-01-21T11:28:44.934Z,8.50
2018-01-21T11:31:14.972Z,15.90
2018-01-21T11:33:44.163Z,8.37
2018-01-21T11:36:13.393Z,7.60
2018-01-21T11:38:42.846Z,7.10
2018-01-21T11:41:12.783Z,8.20
2018-01-21T11:43:42.042Z,7.50
2018-01-21T11:46:11.279Z,8.00
2018-01-21T11:48:40.475Z,10.47
2018-01-21T11:51:10.474Z,11.77
2018-01-21T11:53:39.695Z,7.27
2018-01-21T11:56:08.943Z,9.23
2018-01-21T11:58:38.910Z,9.30
2018-01-21T12:01:08.144Z,10.17
2018-01-21T12:03:37.634Z,11.10
2018-01-21T12:06:06.858Z,13.13
2018-01-21T12:08:36.850Z,11.37
2018-01-21T12:11:07.202Z,6.87
2018-01-21T12:13:36.726Z,6.57
2018-01-21T12:16:05.938Z,8.30
2018-01-21T12:18:35.151Z,7.13
2018-01-21T12:21:04.390Z,7.30
2018-01-21T12:23:33.635Z,7.63
2018-01-21T12:26:02.866Z,8.73
2018-01-21T12:28:32.074Z,9.43
2018-01-21T12:31:01.279Z,9.73
2018-01-21T12:33:31.274Z,9.37
2018-01-21T12:36:00.519Z,8.40
2018-01-21T12:38:29.819Z,7.83
2018-01-21T12:40:59.130Z,6.43
2018-01-21T12:43:29.125Z,5.50
2018-01-21T12:45:58.313Z,6.20
2018-01-21T12:48:28.325Z,7.00
2018-01-21T12:50:58.318Z,7.07
2018-01-21T12:53:27.624Z,6.67
2018-01-21T12:55:56.882Z,6.40
2018-01-21T12:58:26.118Z,8.00
2018-01-21T13:00:56.165Z,8.40
2018-01-21T13:03:26.123Z,6.60
2018-01-21T13:05:55.335Z,7.07
2018-01-21T13:08:24.537Z,7.40
2018-01-21T13:10:53.762Z,6.37
2018-01-21T13:13:23.761Z,5.70
2018-01-21T13:15:53.817Z,4.93
2018-01-21T13:18:23.201Z,6.33
2018-01-21T13:20:53.240Z,6.80
2018-01-21T13:23:22.457Z,7.30
2018-01-21T13:25:51.723Z,5.63
2018-01-21T13:28:20.950Z,7.57
2018-01-21T13:30:50.178Z,6.27
2018-01-21T13:33:19.492Z,5.73
2018-01-21T13:35:48.690Z,6.27
2018-01-21T13:38:18.658Z,6.73
2018-01-21T13:40:47.856Z,6.93
2018-01-21T13:43:17.195Z,6.50
2018-01-21T13:45:46.410Z,5.37
2018-01-21T13:48:16.401Z,4.00
2018-01-21T13:50:45.599Z,4.80
2018-01-21T13:53:14.884Z,3.03
2018-01-21T13:55:44.110Z,3.50
2018-01-21T13:58:13.362Z,4.37
2018-01-21T14:00:42.571Z,4.10
2018-01-21T14:03:11.775Z,3.17
2018-01-21T14:05:41.017Z,3.67
2018-01-21T14:08:10.875Z,3.87
2018-01-21T14:10:40.900Z,3.90
2018-01-21T14:13:10.130Z,3.90
2018-01-21T14:15:40.814Z,3.60
2018-01-21T14:18:10.071Z,4.47
2018-01-21T14:20:39.318Z,4.73
2018-01-21T14:23:08.599Z,4.67
2018-01-21T14:25:37.814Z,4.50
2018-01-21T14:28:07.302Z,4.33
2018-01-21T14:30:36.508Z,4.23
2018-01-21T14:33:05.740Z,3.43
2018-01-21T14:35:35.794Z,4.30
2018-01-21T14:38:04.984Z,4.93
2018-01-21T14:40:34.990Z,4.53
2018-01-21T14:43:05.270Z,4.67
2018-01-21T14:45:34.547Z,6.50
2018-01-21T14:48:03.754Z,6.77
2018-01-21T14:50:33.003Z,6.63
2018-01-21T14:53:03.033Z,4.10
2018-01-21T14:55:33.009Z,4.30
2018-01-21T14:58:02.207Z,4.00
2018-01-21T15:00:31.520Z,4.87
2018-01-21T15:03:01.566Z,4.43
2018-01-21T15:05:30.871Z,4.67
2018-01-21T15:08:00.124Z,4.00
2018-01-21T15:10:29.509Z,4.50
2018-01-21T15:12:58.831Z,4.30
2018-01-21T15:15:29.559Z,4.97
2018-01-21T15:17:58.793Z,4.80
2018-01-21T15:20:28.748Z,5.20
2018-01-21T15:22:57.995Z,5.50
2018-01-21T15:25:27.965Z,5.57
2018-01-21T15:27:57.495Z,6.80
2018-01-21T15:30:27.282Z,6.87
2018-01-21T15:32:56.894Z,5.70
2018-01-21T15:35:26.115Z,8.03
2018-01-21T15:37:55.308Z,6.40
2018-01-21T15:40:24.782Z,7.80
2018-01-21T15:42:54.025Z,7.23
2018-01-21T15:45:23.256Z,5.60
2018-01-21T15:47:52.450Z,5.70
2018-01-21T15:50:22.786Z,7.03
2018-01-21T15:52:52.031Z,5.40
2018-01-21T15:55:22.784Z,5.60
2018-01-21T15:57:51.978Z,6.23
2018-01-21T16:00:21.215Z,6.33
2018-01-21T16:02:50.433Z,5.80
2018-01-21T16:05:19.703Z,6.80
2018-01-21T16:07:49.030Z,7.53
2018-01-21T16:10:19.044Z,8.77
2018-01-21T16:12:48.267Z,8.30
2018-01-21T16:15:17.540Z,8.03
2018-01-21T16:17:46.836Z,7.90
2018-01-21T16:20:16.418Z,6.93
2018-01-21T16:22:45.696Z,7.50
2018-01-21T16:25:15.792Z,8.60
2018-01-21T16:27:45.782Z,6.70
2018-01-21T16:30:15.019Z,8.10
2018-01-21T16:32:44.256Z,7.60
2018-01-21T16:35:13.576Z,6.07
2018-01-21T16:38:00.797Z,6.70
2018-01-21T16:40:30.974Z,5.73
2018-01-21T16:43:00.579Z,6.13
2018-01-21T16:45:29.831Z,6.27
2018-01-21T16:47:59.200Z,7.00
2018-01-21T16:50:28.434Z,7.30
2018-01-21T16:52:57.667Z,6.80
2018-01-21T16:55:27.668Z,7.87
2018-01-21T16:57:57.666Z,7.20
2018-01-21T17:00:26.949Z,7.80
2018-01-21T17:02:56.099Z,7.30
2018-01-21T17:05:25.424Z,6.80
2018-01-21T17:07:54.679Z,7.07
2018-01-21T17:10:23.919Z,7.33
2018-01-21T17:12:54.116Z,7.43
2018-01-21T17:15:24.146Z,7.40
2018-01-21T17:17:53.357Z,7.30
2018-01-21T17:20:22.601Z,6.90
2018-01-21T17:22:52.591Z,8.10
2018-01-21T17:25:21.999Z,7.10
2018-01-21T17:27:51.231Z,7.00
2018-01-21T17:30:21.234Z,8.40
2018-01-21T17:32:50.458Z,7.00
2018-01-21T17:35:20.478Z,9.23
2018-01-21T17:37:49.822Z,8.67
2018-01-21T17:40:19.231Z,9.90
2018-01-21T17:42:48.491Z,8.57
2018-01-21T17:45:17.738Z,10.97
2018-01-21T17:47:47.796Z,9.40
2018-01-21T17:50:17.238Z,9.73
2018-01-21T17:52:46.460Z,9.50
2018-01-21T17:55:15.697Z,9.63
2018-01-21T17:57:45.678Z,10.20
2018-01-21T18:00:15.686Z,9.90
2018-01-21T18:02:45.248Z,9.63
2018-01-21T18:05:14.478Z,10.17
2018-01-21T18:07:43.778Z,9.77
2018-01-21T18:10:13.034Z,10.50
2018-01-21T18:12:42.293Z,10.87
2018-01-21T18:15:11.555Z,12.37
2018-01-21T18:17:40.834Z,9.90
2018-01-21T18:20:10.121Z,11.00
2018-01-21T18:22:41.079Z,10.10
2018-01-21T18:25:10.385Z,11.37
2018-01-21T18:27:39.698Z,11.87
2018-01-21T18:30:08.929Z,12.00
2018-01-21T18:32:38.233Z,11.90
2018-01-21T18:35:08.294Z,12.37
2018-01-21T18:37:37.572Z,12.30
2018-01-21T18:40:06.805Z,12.07
2018-01-21T18:42:36.053Z,12.80
2018-01-21T18:45:05.582Z,13.20
2018-01-21T18:47:34.777Z,13.00
2018-01-21T18:50:04.882Z,11.90
2018-01-21T18:52:34.090Z,13.70
2018-01-21T18:55:04.152Z,13.00
2018-01-21T18:57:33.325Z,12.37
2018-01-21T19:00:02.609Z,11.67
2018-01-21T19:02:31.833Z,12.93
2018-01-21T19:05:01.086Z,14.13
2018-01-21T19:07:31.164Z,12.00
2018-01-21T19:10:00.381Z,13.20
2018-01-21T19:12:29.743Z,13.40
2018-01-21T19:14:59.009Z,14.60
2018-01-21T19:17:29.012Z,12.70
2018-01-21T19:19:59.093Z,13.07
2018-01-21T19:22:28.330Z,12.37
2018-01-21T19:24:57.643Z,14.97
2018-01-21T19:27:26.887Z,14.20
2018-01-21T19:29:56.203Z,14.13
2018-01-21T19:32:27.047Z,12.90
2018-01-21T19:34:56.469Z,15.33
2018-01-21T19:37:25.917Z,15.57
2018-01-21T19:40:00.752Z,14.93
2018-01-21T19:42:43.997Z,14.90
2018-01-21T19:45:13.035Z,14.50
2018-01-21T19:47:42.286Z,14.93
2018-01-21T19:50:11.587Z,15.90
2018-01-21T19:52:42.412Z,16.27
2018-01-21T19:55:11.744Z,15.97
2018-01-21T19:57:41.858Z,15.73
2018-01-21T20:00:11.160Z,15.97
2018-01-21T20:02:40.404Z,14.30
2018-01-21T20:05:09.654Z,15.40
2018-01-21T20:07:39.018Z,14.93
2018-01-21T20:10:08.257Z,16.20
2018-01-21T20:12:39.848Z,15.10
2018-01-21T20:15:09.161Z,15.80
2018-01-21T20:17:38.668Z,16.17
2018-01-21T20:20:08.106Z,17.83
2018-01-21T20:22:38.186Z,15.60
2018-01-21T20:25:07.426Z,17.20
2018-01-21T20:27:36.740Z,16.23
2018-01-21T20:30:06.835Z,16.73
2018-01-21T20:32:36.049Z,15.37
2018-01-21T20:35:05.491Z,15.57
2018-01-21T20:37:34.856Z,14.50
2018-01-21T20:40:04.904Z,15.53
2018-01-21T20:42:35.045Z,14.40
2018-01-21T20:45:04.291Z,14.93
2018-01-21T20:47:34.346Z,13.10
2018-01-21T20:50:03.543Z,15.57
2018-01-21T20:52:38.380Z,14.20
2018-01-21T20:55:07.650Z,15.37
2018-01-21T20:57:37.089Z,15.47
2018-01-21T21:00:06.326Z,15.30
2018-01-21T21:02:36.340Z,15.20
2018-01-21T21:05:05.619Z,15.73
2018-01-21T21:07:34.930Z,13.10
2018-01-21T21:10:04.159Z,15.80
2018-01-21T21:12:34.142Z,13.70
2018-01-21T21:15:03.382Z,13.53
2018-01-21T21:17:32.622Z,14.47
2018-01-21T21:20:01.869Z,14.10
2018-01-21T21:22:31.958Z,13.60
2018-01-21T21:25:01.242Z,12.97
2018-01-21T21:27:30.482Z,12.27
2018-01-21T21:29:59.751Z,13.80
2018-01-21T21:32:28.955Z,12.03
2018-01-21T21:34:58.166Z,13.50
2018-01-21T21:37:28.180Z,12.47
2018-01-21T21:39:58.213Z,13.57
2018-01-21T21:42:28.169Z,11.13
2018-01-21T21:44:57.570Z,12.10
2018-01-21T21:47:26.812Z,12.03
2018-01-21T21:49:56.869Z,13.20
2018-01-21T21:52:26.322Z,10.50
2018-01-21T21:54:55.755Z,10.83
2018-01-21T21:57:25.901Z,10.97
2018-01-21T21:59:55.179Z,10.57
2018-01-21T22:02:24.460Z,11.93
2018-01-21T22:04:54.418Z,11.30
2018-01-21T22:07:23.749Z,9.37
2018-01-21T22:09:52.949Z,9.20
2018-01-21T22:12:22.182Z,10.40
2018-01-21T22:14:51.444Z,9.23
2018-01-21T22:17:22.221Z,9.00
2018-01-21T22:19:51.462Z,8.47
2018-01-21T22:22:20.688Z,8.70
2018-01-21T22:24:50.684Z,7.80
2018-01-21T22:27:20.015Z,7.80
2018-01-21T22:29:49.486Z,6.77
2018-01-21T22:32:18.706Z,5.43
2018-01-21T22:34:48.074Z,5.50
2018-01-21T22:37:17.294Z,4.90
2018-01-21T22:39:46.498Z,4.37
2018-01-21T22:42:15.826Z,4.40
2018-01-21T22:44:45.023Z,4.60
2018-01-21T22:47:14.280Z,4.40
2018-01-21T22:49:43.524Z,3.60
2018-01-21T22:52:12.720Z,4.07
2018-01-21T22:54:42.683Z,3.73
2018-01-21T22:57:11.989Z,4.67
2018-01-21T22:59:41.225Z,4.50
2018-01-21T23:02:11.219Z,4.20
2018-01-21T23:04:40.435Z,4.73
2018-01-21T23:07:09.672Z,5.27
2018-01-21T23:09:38.872Z,4.80
2018-01-21T23:12:08.303Z,4.67
2018-01-21T23:14:37.503Z,4.77
2018-01-21T23:17:06.731Z,5.13
2018-01-21T23:19:36.769Z,4.97
2018-01-21T23:22:06.034Z,4.80
2018-01-21T23:24:36.054Z,4.63
2018-01-21T23:27:06.066Z,4.73
2018-01-21T23:29:36.069Z,5.50
2018-01-21T23:32:06.142Z,5.63
2018-01-21T23:34:35.358Z,5.10
2018-01-21T23:37:04.565Z,5.63
2018-01-21T23:39:33.785Z,5.07
2018-01-21T23:42:03.194Z,5.10
2018-01-21T23:44:32.365Z,5.83
2018-01-21T23:47:03.117Z,5.17
2018-01-21T23:49:32.364Z,6.00
2018-01-21T23:52:01.574Z,6.50
2018-01-21T23:54:31.586Z,6.80
2018-01-21T23:57:00.781Z,5.70
2018-01-21T23:59:30.848Z,6.07
